createdAt,value
2023-03-30T00:04:34.788Z,3.67
2023-03-30T00:09:33.689Z,3.20
2023-03-30T00:14:32.510Z,3.50
2023-03-30T00:19:32.802Z,3.20
2023-03-30T00:24:31.530Z,4.03
2023-03-30T00:29:30.262Z,3.47
2023-03-30T00:34:29.096Z,3.50
2023-03-30T00:39:29.304Z,3.50
2023-03-30T00:45:13.587Z,4.17
2023-03-30T00:50:13.825Z,3.63
2023-03-30T00:55:14.952Z,3.47
2023-03-30T01:00:15.078Z,3.73
2023-03-30T01:05:14.261Z,4.20
2023-03-30T01:10:14.728Z,4.93
2023-03-30T01:15:16.283Z,4.28
2023-03-30T01:20:47.589Z,4.45
2023-03-30T01:26:24.705Z,4.57
2023-03-30T01:31:50.232Z,3.73
2023-03-30T01:37:19.517Z,5.40
2023-03-30T01:42:23.809Z,5.50
2023-03-30T01:47:29.544Z,4.40
2023-03-30T01:52:37.096Z,4.30
2023-03-30T01:57:45.553Z,5.00
2023-03-30T02:02:49.669Z,5.20
2023-03-30T02:07:53.860Z,5.50
2023-03-30T02:12:57.171Z,5.67
2023-03-30T02:17:55.959Z,5.90
2023-03-30T02:22:55.459Z,5.43
2023-03-30T02:27:55.658Z,6.07
2023-03-30T02:32:57.092Z,7.10
2023-03-30T02:38:15.026Z,6.83
2023-03-30T02:43:35.152Z,6.03
2023-03-30T02:48:42.851Z,6.47
2023-03-30T02:53:47.249Z,6.20
2023-03-30T02:59:05.311Z,6.30
2023-03-30T03:04:06.344Z,7.33
2023-03-30T03:09:25.143Z,6.20
2023-03-30T03:14:26.641Z,6.40
2023-03-30T03:19:26.126Z,7.40
2023-03-30T03:24:25.455Z,6.97
2023-03-30T03:29:54.645Z,6.80
2023-03-30T03:34:53.827Z,7.83
2023-03-30T03:39:52.785Z,7.63
2023-03-30T03:44:51.932Z,7.70
2023-03-30T03:49:52.713Z,8.47
2023-03-30T03:54:51.743Z,9.87
2023-03-30T03:59:51.295Z,8.40
2023-03-30T04:04:50.402Z,12.57
2023-03-30T04:09:50.623Z,8.73
2023-03-30T04:15:11.800Z,9.87
2023-03-30T04:20:34.131Z,10.87
2023-03-30T04:25:48.232Z,12.10
2023-03-30T04:31:13.118Z,12.93
2023-03-30T04:36:31.122Z,14.80
2023-03-30T04:41:52.384Z,15.97
2023-03-30T04:47:17.431Z,14.97
2023-03-30T04:52:37.651Z,17.93
2023-03-30T04:57:49.619Z,16.00
2023-03-30T05:03:11.573Z,19.10
2023-03-30T05:08:29.772Z,17.73
2023-03-30T05:13:48.626Z,21.10
2023-03-30T05:19:02.498Z,17.57
2023-03-30T05:24:36.413Z,18.03
2023-03-30T05:29:56.608Z,15.30
2023-03-30T05:35:12.143Z,12.77
2023-03-30T05:40:29.769Z,9.87
2023-03-30T05:45:44.262Z,11.10
2023-03-30T05:51:02.565Z,12.27
2023-03-30T05:56:17.898Z,12.80
2023-03-30T06:01:28.609Z,8.57
2023-03-30T06:06:29.822Z,8.93
2023-03-30T06:11:29.000Z,7.93
2023-03-30T06:16:41.127Z,8.33
2023-03-30T06:21:42.975Z,8.32
2023-03-30T06:27:03.567Z,9.90
2023-03-30T06:32:05.006Z,8.30
2023-03-30T06:37:22.585Z,5.83
2023-03-30T06:42:22.674Z,6.17
2023-03-30T06:47:35.966Z,5.13
2023-03-30T06:52:36.399Z,5.53
2023-03-30T06:57:36.141Z,5.43
2023-03-30T07:02:36.857Z,5.90
2023-03-30T07:07:46.708Z,6.00
2023-03-30T07:12:45.722Z,6.50
2023-03-30T07:17:53.632Z,5.72
2023-03-30T07:22:53.150Z,5.85
2023-03-30T07:27:52.155Z,6.28
2023-03-30T07:32:53.185Z,7.22
2023-03-30T07:38:02.939Z,5.72
2023-03-30T07:43:07.008Z,7.18
2023-03-30T07:48:07.894Z,6.30
2023-03-30T07:53:07.463Z,6.50
2023-03-30T07:58:07.910Z,6.07
2023-03-30T08:03:08.600Z,5.93
2023-03-30T08:08:08.009Z,6.70
2023-03-30T08:13:08.072Z,6.10
2023-03-30T08:18:08.900Z,5.22
2023-03-30T08:23:09.354Z,5.20
2023-03-30T08:28:09.117Z,4.53
2023-03-30T08:33:10.218Z,4.03
2023-03-30T08:38:10.035Z,3.85
2023-03-30T08:43:23.147Z,4.03
2023-03-30T08:48:26.238Z,3.22
2023-03-30T08:53:25.097Z,2.58
2023-03-30T08:58:34.491Z,2.45
2023-03-30T09:03:40.894Z,3.17
2023-03-30T09:08:40.451Z,3.33
2023-03-30T09:13:42.361Z,2.53
2023-03-30T09:18:44.761Z,3.00
2023-03-30T09:23:46.545Z,2.20
2023-03-30T09:28:55.198Z,2.20
2023-03-30T09:34:03.632Z,2.35
2023-03-30T09:39:10.483Z,2.28
2023-03-30T09:44:20.605Z,2.03
2023-03-30T09:49:22.900Z,2.95
2023-03-30T09:54:25.105Z,2.22
2023-03-30T10:00:00.604Z,2.22
2023-03-30T10:05:05.619Z,2.40
2023-03-30T10:10:29.110Z,2.75
2023-03-30T10:15:46.541Z,3.78
2023-03-30T10:20:51.564Z,2.70
2023-03-30T10:25:52.301Z,2.47
2023-03-30T10:30:54.949Z,2.70
2023-03-30T10:36:00.750Z,2.30
2023-03-30T10:41:10.878Z,2.10
2023-03-30T10:46:20.202Z,2.47
2023-03-30T10:51:32.874Z,2.28
2023-03-30T10:56:36.408Z,2.40
2023-03-30T11:02:33.589Z,2.20
2023-03-30T11:08:36.076Z,6.80
2023-03-30T11:14:06.216Z,3.55
2023-03-30T11:19:11.492Z,7.30
2023-03-30T11:24:17.395Z,4.95
2023-03-30T11:29:29.299Z,3.47
2023-03-30T11:34:43.921Z,3.92
2023-03-30T11:40:13.773Z,2.55
2023-03-30T11:45:21.690Z,3.22
2023-03-30T11:50:32.318Z,2.00
2023-03-30T11:55:52.309Z,2.00
2023-03-30T12:07:56.687Z,3.10
2023-03-30T12:12:57.997Z,3.28
2023-03-30T12:18:04.826Z,2.33
2023-03-30T12:23:15.153Z,2.13
2023-03-30T12:28:17.583Z,2.20
2023-03-30T12:33:27.746Z,2.65
2023-03-30T12:38:30.179Z,2.60
2023-03-30T12:43:40.611Z,3.50
2023-03-30T12:48:50.413Z,1.90
2023-03-30T12:54:23.315Z,4.43
2023-03-30T12:59:57.088Z,3.10
2023-03-30T13:04:56.908Z,2.63
2023-03-30T13:09:59.820Z,1.90
2023-03-30T13:15:07.287Z,2.28
2023-03-30T13:20:29.961Z,3.08
2023-03-30T13:25:42.013Z,3.70
2023-03-30T13:30:50.400Z,1.63
2023-03-30T13:35:59.092Z,2.45
2023-03-30T13:41:10.861Z,2.38
2023-03-30T13:46:19.845Z,1.75
2023-03-30T13:51:22.209Z,2.70
2023-03-30T13:56:22.758Z,2.55
2023-03-30T14:01:25.778Z,2.17
2023-03-30T14:06:26.890Z,1.60
2023-03-30T14:11:34.645Z,2.67
2023-03-30T14:16:38.653Z,1.70
2023-03-30T14:21:47.501Z,1.50
2023-03-30T14:26:49.179Z,1.88
2023-03-30T14:32:06.597Z,1.90
2023-03-30T14:37:09.752Z,2.05
2023-03-30T14:42:16.361Z,1.80
2023-03-30T14:47:22.747Z,1.67
2023-03-30T14:52:24.072Z,1.17
2023-03-30T14:57:26.739Z,1.63
2023-03-30T15:02:30.136Z,1.70
2023-03-30T15:07:32.666Z,2.03
2023-03-30T15:12:35.652Z,2.22
2023-03-30T15:17:39.060Z,4.50
2023-03-30T15:22:40.243Z,3.38
2023-03-30T15:27:41.172Z,8.80
2023-03-30T15:32:42.372Z,3.60
2023-03-30T15:37:54.935Z,2.50
2023-03-30T15:43:12.985Z,1.92
2023-03-30T15:48:13.749Z,4.82
2023-03-30T15:53:19.412Z,2.90
2023-03-30T15:58:35.764Z,2.03
2023-03-30T16:03:41.611Z,2.00
2023-03-30T16:08:43.635Z,2.45
2023-03-30T16:13:45.770Z,2.90
2023-03-30T16:18:46.762Z,3.88
2023-03-30T16:23:49.328Z,4.03
2023-03-30T16:28:52.576Z,9.80
2023-03-30T16:33:54.673Z,21.02
2023-03-30T16:38:54.150Z,20.27
2023-03-30T16:43:53.361Z,22.80
2023-03-30T16:48:54.790Z,15.48
2023-03-30T16:53:53.819Z,15.43
2023-03-30T16:58:52.868Z,12.85
2023-03-30T17:04:09.790Z,13.73
2023-03-30T17:09:13.959Z,18.40
2023-03-30T17:14:13.310Z,15.95
2023-03-30T17:19:16.031Z,14.48
2023-03-30T17:24:50.277Z,16.35
2023-03-30T17:29:53.376Z,16.25
2023-03-30T17:39:54.649Z,14.63
2023-03-30T17:45:02.670Z,16.98
2023-03-30T17:50:04.239Z,17.25
2023-03-30T17:55:03.709Z,18.02
2023-03-30T18:00:06.279Z,19.55
2023-03-30T18:05:10.123Z,21.77
2023-03-30T18:10:21.916Z,28.45
2023-03-30T18:15:25.565Z,27.08
2023-03-30T18:20:32.598Z,27.73
2023-03-30T18:25:32.983Z,26.73
2023-03-30T18:30:33.641Z,24.73
2023-03-30T18:35:35.835Z,29.90
2023-03-30T18:40:37.828Z,27.27
2023-03-30T18:45:38.897Z,29.42
2023-03-30T18:50:41.351Z,34.33
2023-03-30T18:55:42.358Z,31.35
2023-03-30T19:00:41.615Z,27.67
2023-03-30T19:05:43.334Z,31.85
2023-03-30T19:10:44.541Z,28.92
2023-03-30T19:15:45.275Z,28.10
2023-03-30T19:20:46.519Z,41.58
2023-03-30T19:25:46.479Z,55.10
2023-03-30T19:30:46.347Z,71.60
2023-03-30T19:35:47.221Z,107.40
2023-03-30T19:40:46.590Z,66.10
2023-03-30T19:45:45.526Z,61.72
2023-03-30T19:50:44.626Z,66.93
2023-03-30T19:55:46.190Z,48.92
2023-03-30T20:01:15.463Z,56.13
2023-03-30T20:06:12.949Z,33.22
2023-03-30T20:11:13.711Z,34.67
2023-03-30T20:16:14.356Z,27.48
2023-03-30T20:21:15.952Z,26.50
2023-03-30T20:26:19.367Z,30.17
2023-03-30T20:31:18.506Z,17.33
2023-03-30T20:36:17.481Z,18.25
2023-03-30T20:41:21.873Z,11.05
2023-03-30T20:46:22.761Z,6.85
2023-03-30T20:51:24.028Z,4.75
2023-03-30T20:56:28.027Z,5.45
2023-03-30T21:01:29.694Z,7.80
2023-03-30T21:06:30.634Z,6.20
2023-03-30T21:11:33.638Z,5.60
2023-03-30T21:16:32.978Z,5.35
2023-03-30T21:21:33.906Z,3.10
2023-03-30T21:26:34.499Z,2.67
2023-03-30T21:31:33.488Z,3.22
2023-03-30T21:36:32.492Z,4.75
2023-03-30T21:41:33.259Z,7.05
2023-03-30T21:46:33.551Z,5.07
2023-03-30T21:51:32.679Z,4.68
2023-03-30T21:56:32.460Z,4.30
2023-03-30T22:01:31.548Z,4.47
2023-03-30T22:06:32.427Z,4.93
2023-03-30T22:11:31.486Z,5.80
2023-03-30T22:16:33.325Z,6.10
2023-03-30T22:21:35.653Z,4.65
2023-03-30T22:26:35.858Z,6.28
2023-03-30T22:31:34.752Z,6.10
2023-03-30T22:36:34.960Z,4.40
2023-03-30T22:41:33.743Z,4.68
2023-03-30T22:46:32.679Z,4.97
2023-03-30T22:51:34.070Z,3.78
2023-03-30T22:56:35.096Z,4.72
2023-03-30T23:01:35.296Z,4.40
2023-03-30T23:06:36.468Z,47.25
2023-03-30T23:11:53.782Z,66.90
2023-03-30T23:17:00.863Z,13.63
2023-03-30T23:21:59.814Z,7.55
2023-03-30T23:27:01.052Z,23.75
2023-03-30T23:32:00.025Z,13.05
2023-03-30T23:37:02.346Z,154.73
2023-03-30T23:42:05.036Z,19.45
2023-03-30T23:47:03.880Z,13.88
2023-03-30T23:52:02.608Z,11.93
2023-03-30T23:57:01.916Z,11.48
